Time;durP1;ratioP1;P1;durP2;ratioP2;P2;SDS_P1;SDS_P2;PMS_P1;PMS_P2;Temp;Humidity;BMP_temperature;BMP_pressure;BME280_temperature;BME280_humidity;BME280_pressure;Samples;Min_cycle;Max_cycle;Signal;HPM_P1;HPM_P2
2023/01/26 00:01:37;;;;;;;131.80;29.77;;;-0.60;99.90;;;;;;5048785;28;20045;-37
2023/01/26 00:04:03;;;;;;;122.60;28.48;;;-0.70;99.90;;;;;;5048649;28;20037;-37
2023/01/26 00:06:29;;;;;;;128.75;26.17;;;-0.60;99.90;;;;;;5048153;28;20049;-37
2023/01/26 00:08:56;;;;;;;137.18;29.80;;;-0.60;99.90;;;;;;5048220;28;20078;-37
2023/01/26 00:11:28;;;;;;;123.18;27.95;;;-0.60;99.90;;;;;;5048576;28;20086;-37
2023/01/26 00:13:59;;;;;;;142.35;29.67;;;-0.60;99.90;;;;;;5048694;28;20088;-37
2023/01/26 00:16:25;;;;;;;129.75;29.63;;;-0.60;99.90;;;;;;5048147;28;20040;-37
2023/01/26 00:18:51;;;;;;;124.40;27.58;;;-0.60;99.90;;;;;;5048213;28;20048;-37
2023/01/26 00:21:19;;;;;;;137.65;28.40;;;0.40;99.90;;;;;;5048588;28;20052;-37
2023/01/26 00:23:46;;;;;;;141.43;28.00;;;-0.60;99.90;;;;;;5048311;28;20080;-37
2023/01/26 00:26:17;;;;;;;131.68;28.58;;;-0.60;99.90;;;;;;5048357;28;20151;-37
2023/01/26 00:28:43;;;;;;;126.90;27.13;;;-0.60;99.90;;;;;;5029917;28;20084;-37
2023/01/26 00:31:14;;;;;;;125.55;26.58;;;-0.60;99.90;;;;;;5048289;28;20080;-37
2023/01/26 00:33:40;;;;;;;129.55;26.92;;;-0.60;99.90;;;;;;5047743;28;20092;-37
2023/01/26 00:36:06;;;;;;;118.85;26.48;;;-0.60;99.90;;;;;;5048040;28;20045;-37
2023/01/26 00:38:32;;;;;;;143.45;28.65;;;-0.60;99.90;;;;;;5047748;28;20041;-38
2023/01/26 00:40:58;;;;;;;128.73;26.48;;;-0.60;99.90;;;;;;5048482;28;20044;-37
2023/01/26 00:43:24;;;;;;;115.72;25.17;;;-0.60;99.90;;;;;;5048357;28;20055;-37
2023/01/26 00:45:50;;;;;;;112.03;25.77;;;-0.60;99.90;;;;;;5048302;28;20037;-37
2023/01/26 00:48:15;;;;;;;107.38;26.08;;;-0.60;99.90;;;;;;5048226;28;20048;-37
2023/01/26 00:50:41;;;;;;;128.77;25.25;;;-0.60;99.90;;;;;;5048372;28;20123;-37
2023/01/26 00:53:07;;;;;;;109.90;25.67;;;-0.60;99.90;;;;;;5048242;28;20051;-37
2023/01/26 00:55:32;;;;;;;115.63;25.40;;;-0.50;99.90;;;;;;5047700;28;20052;-37
2023/01/26 00:57:59;;;;;;;119.78;25.70;;;-0.60;99.90;;;;;;5029624;28;20044;-37
2023/01/26 01:00:26;;;;;;;92.07;21.10;;;-0.60;99.90;;;;;;5047364;28;20099;-37
2023/01/26 01:02:52;;;;;;;91.63;21.83;;;-0.50;99.90;;;;;;5047619;28;20044;-37
2023/01/26 01:05:17;;;;;;;113.95;24.92;;;-0.50;99.90;;;;;;5048024;28;20415;-37
2023/01/26 01:07:43;;;;;;;108.55;23.55;;;-0.50;99.90;;;;;;5046992;28;20862;-37
2023/01/26 01:10:10;;;;;;;106.80;23.33;;;-0.50;99.90;;;;;;5048099;28;20045;-37
2023/01/26 01:12:35;;;;;;;97.57;23.42;;;-0.50;99.90;;;;;;5047526;28;20041;-37
2023/01/26 01:15:01;;;;;;;104.50;21.80;;;-0.50;99.90;;;;;;5047898;28;20099;-37
2023/01/26 01:17:27;;;;;;;124.97;24.17;;;-0.50;99.90;;;;;;5047456;28;20071;-37
2023/01/26 01:19:52;;;;;;;95.40;20.08;;;-0.50;99.90;;;;;;5047619;28;20051;-37
2023/01/26 01:22:18;;;;;;;94.45;20.17;;;-0.40;99.90;;;;;;5047788;28;20215;-37
2023/01/26 01:24:44;;;;;;;97.45;21.50;;;-0.40;99.90;;;;;;5047694;28;20056;-37
2023/01/26 01:27:09;;;;;;;104.80;21.60;;;-0.40;99.90;;;;;;5047906;28;20060;-37
2023/01/26 01:29:35;;;;;;;117.35;23.58;;;-0.40;99.90;;;;;;5047402;28;20045;-37
2023/01/26 01:32:01;;;;;;;112.13;22.23;;;-0.40;99.90;;;;;;5047659;28;20044;-38
2023/01/26 01:34:27;;;;;;;106.78;22.58;;;-0.40;99.90;;;;;;5046791;28;20538;-37
2023/01/26 01:36:53;;;;;;;93.45;20.23;;;-0.40;99.90;;;;;;5047435;28;20044;-37
2023/01/26 01:39:19;;;;;;;98.03;20.35;;;-0.40;99.90;;;;;;5047472;28;20045;-37
2023/01/26 01:41:45;;;;;;;104.63;22.05;;;-0.40;99.90;;;;;;5047335;28;20048;-37
2023/01/26 01:44:22;;;;;;;98.35;21.52;;;-0.40;99.90;;;;;;5047411;28;20627;-37
2023/01/26 01:46:59;;;;;;;110.68;22.67;;;-0.40;99.90;;;;;;5047252;28;20033;-37
2023/01/26 01:49:31;;;;;;;109.57;23.38;;;-0.40;99.90;;;;;;5047259;28;20076;-37
2023/01/26 01:52:05;;;;;;;114.25;22.70;;;-0.40;99.90;;;;;;5047104;28;20068;-37
2023/01/26 01:54:42;;;;;;;113.65;23.60;;;-0.40;99.90;;;;;;5046881;28;20048;-37
2023/01/26 01:57:16;;;;;;;101.18;22.70;;;-0.40;99.90;;;;;;5046591;28;20128;-37
2023/01/26 01:59:52;;;;;;;108.65;22.95;;;-0.30;99.90;;;;;;5046331;28;20064;-37
2023/01/26 02:02:18;;;;;;;110.43;21.13;;;-0.30;99.90;;;;;;5046390;28;20050;-37
2023/01/26 02:04:43;;;;;;;124.03;21.83;;;-0.30;99.90;;;;;;5046078;28;20443;-37
2023/01/26 02:07:10;;;;;;;91.68;20.77;;;-0.30;99.90;;;;;;5044934;28;20049;-37
2023/01/26 02:12:28;;;;;;;89.90;19.00;;;-0.30;99.90;;;;;;5046467;28;20114;-37
2023/01/26 02:14:55;;;;;;;81.28;17.98;;;-0.30;99.90;;;;;;5046207;28;20045;-37
2023/01/26 02:17:21;;;;;;;95.82;18.88;;;-0.30;99.90;;;;;;5046257;28;20048;-37
2023/01/26 02:20:06;;;;;;;87.63;20.52;;;-0.40;99.90;;;;;;5045703;28;20490;-37
2023/01/26 02:22:41;;;;;;;98.35;19.33;;;-0.30;99.90;;;;;;5045793;28;20045;-37
2023/01/26 02:25:26;;;;;;;91.43;20.05;;;-0.30;99.90;;;;;;5045882;28;20753;-37
2023/01/26 02:27:51;;;;;;;101.53;19.40;;;-0.30;99.90;;;;;;5046323;28;20052;-37
2023/01/26 02:30:17;;;;;;;94.35;20.35;;;-0.30;99.90;;;;;;5046468;28;20459;-37
2023/01/26 02:32:43;;;;;;;110.47;21.33;;;-0.30;99.90;;;;;;5045557;28;20091;-37
2023/01/26 02:35:09;;;;;;;88.50;19.83;;;-0.30;99.90;;;;;;5045491;28;20072;-37
2023/01/26 02:37:34;;;;;;;98.28;20.40;;;-0.30;99.90;;;;;;5045842;28;20098;-37
2023/01/26 02:40:39;;;;;;;102.30;21.15;;;-0.30;99.90;;;;;;5045502;28;20049;-37
2023/01/26 02:43:05;;;;;;;100.18;19.20;;;-0.20;99.90;;;;;;5046403;28;20041;-37
2023/01/26 02:45:32;;;;;;;87.85;18.48;;;-0.20;99.90;;;;;;5046115;28;20048;-37
2023/01/26 02:48:03;;;;;;;102.97;20.00;;;0.00;99.90;;;;;;5045707;28;20044;-37
2023/01/26 02:50:29;;;;;;;96.95;19.95;;;-0.20;99.90;;;;;;5045808;28;20045;-37
2023/01/26 02:52:55;;;;;;;86.10;18.27;;;-0.20;99.90;;;;;;5046051;28;20426;-37
2023/01/26 02:55:21;;;;;;;96.40;17.48;;;-0.20;99.90;;;;;;5046295;28;20847;-37
2023/01/26 02:57:47;;;;;;;84.85;18.70;;;-0.20;99.90;;;;;;5045992;28;20068;-37
2023/01/26 03:00:15;;;;;;;92.43;19.42;;;-0.20;99.90;;;;;;5045376;28;20499;-37
2023/01/26 03:02:41;;;;;;;110.13;21.48;;;-0.20;99.90;;;;;;5045645;28;20044;-37
2023/01/26 03:05:07;;;;;;;93.03;19.48;;;-0.20;99.90;;;;;;5044870;28;20044;-37
2023/01/26 03:07:33;;;;;;;97.18;19.88;;;-0.20;99.90;;;;;;5045851;28;20079;-37
2023/01/26 03:09:59;;;;;;;88.43;18.98;;;-0.20;99.90;;;;;;5045513;28;20483;-37
2023/01/26 03:12:25;;;;;;;96.63;20.63;;;-0.20;99.90;;;;;;5027912;28;20056;-37
2023/01/26 03:15:41;;;;;;;100.50;19.42;;;-0.20;99.90;;;;;;5045530;28;20483;-37
2023/01/26 03:17:39;;;;;;;102.28;21.10;;;-0.20;99.90;;;;;;5045300;28;20048;-37
2023/01/26 03:28:21;;;;;;;112.93;19.95;;;-0.20;99.90;;;;;;5044815;28;20141;-37
2023/01/26 03:30:51;;;;;;;75.20;18.80;;;-0.20;99.90;;;;;;5047403;28;20056;-37
2023/01/26 03:33:18;;;;;;;89.70;19.98;;;-0.20;99.90;;;;;;5048266;28;20663;-37
2023/01/26 03:35:44;;;;;;;90.90;18.80;;;-0.20;99.90;;;;;;5048504;28;20049;-37
2023/01/26 03:38:10;;;;;;;86.20;17.73;;;-0.10;99.90;;;;;;5030543;28;20400;-37
2023/01/26 03:57:04;;;;;;;79.43;18.25;;;-0.10;99.90;;;;;;5048635;28;20106;-37
2023/01/26 03:59:39;;;;;;;74.97;16.52;;;-0.10;99.90;;;;;;5048535;28;20056;-37
2023/01/26 04:10:24;;;;;;;84.88;16.42;;;0.00;99.90;;;;;;5048814;28;20064;-37
2023/01/26 04:23:49;;;;;;;80.22;16.35;;;0.00;99.90;;;;;;5048818;28;20060;-37
2023/01/26 04:26:15;;;;;;;92.15;18.02;;;0.00;99.90;;;;;;5048798;28;20049;-37
2023/01/26 04:28:41;;;;;;;100.93;17.38;;;0.00;99.90;;;;;;5030937;28;20045;-37
2023/01/26 04:31:07;;;;;;;78.45;16.00;;;0.00;99.90;;;;;;5048688;28;20682;-37
2023/01/26 04:33:33;;;;;;;91.80;17.67;;;0.00;99.90;;;;;;5048674;28;20057;-37
2023/01/26 04:36:06;;;;;;;79.82;16.15;;;0.00;99.90;;;;;;5047538;28;20044;-37
2023/01/26 04:38:31;;;;;;;72.53;14.40;;;0.00;99.90;;;;;;5048534;28;20128;-37
2023/01/26 04:40:57;;;;;;;77.43;15.18;;;0.00;99.90;;;;;;5046983;28;20799;-37
2023/01/26 04:43:23;;;;;;;76.15;14.40;;;0.00;99.90;;;;;;5048231;28;20037;-37
2023/01/26 04:46:05;;;;;;;65.70;14.35;;;0.00;99.90;;;;;;5048282;28;20506;-37
2023/01/26 04:48:31;;;;;;;69.88;13.75;;;0.00;99.90;;;;;;5048491;28;20048;-37
2023/01/26 04:50:59;;;;;;;71.22;14.85;;;0.00;99.90;;;;;;5047901;28;20117;-37
2023/01/26 04:53:25;;;;;;;75.22;14.82;;;0.80;99.90;;;;;;5047867;28;20046;-37
2023/01/26 04:55:51;;;;;;;73.15;15.50;;;0.00;99.90;;;;;;5047598;28;20051;-37
2023/01/26 04:58:17;;;;;;;62.58;13.18;;;0.00;99.90;;;;;;5047649;28;20341;-37
2023/01/26 05:00:43;;;;;;;73.82;15.35;;;0.00;99.90;;;;;;5047718;28;20040;-37
2023/01/26 05:03:09;;;;;;;62.70;13.95;;;0.10;99.90;;;;;;5047161;28;20037;-37
2023/01/26 05:05:38;;;;;;;64.93;14.25;;;0.00;99.90;;;;;;5047232;28;20033;-37
2023/01/26 05:08:05;;;;;;;69.40;15.07;;;0.10;99.90;;;;;;5046920;28;20136;-37
2023/01/26 05:10:32;;;;;;;71.32;14.18;;;0.10;99.90;;;;;;5047398;28;20033;-37
2023/01/26 05:12:58;;;;;;;60.75;13.23;;;0.00;99.90;;;;;;5047610;28;20410;-38
2023/01/26 05:15:24;;;;;;;73.18;13.52;;;0.10;99.90;;;;;;5047156;28;20763;-37
2023/01/26 05:17:50;;;;;;;75.97;14.32;;;0.10;99.90;;;;;;5029350;28;20048;-38
2023/01/26 05:20:16;;;;;;;86.45;15.18;;;0.00;99.90;;;;;;5047043;28;20043;-37
2023/01/26 05:22:42;;;;;;;75.93;14.70;;;0.10;99.90;;;;;;5047592;28;20083;-38
2023/01/26 05:25:09;;;;;;;65.43;13.15;;;0.10;99.90;;;;;;5047258;28;20147;-38
2023/01/26 05:27:34;;;;;;;70.70;13.48;;;0.10;99.90;;;;;;5047585;28;20032;-37
2023/01/26 05:30:00;;;;;;;63.05;12.25;;;0.10;99.90;;;;;;5047353;28;20775;-37
2023/01/26 05:32:28;;;;;;;50.75;12.27;;;0.10;99.90;;;;;;5047465;28;20645;-37
2023/01/26 05:34:54;;;;;;;58.05;11.85;;;0.10;99.90;;;;;;5047399;28;20061;-38
2023/01/26 05:37:19;;;;;;;63.08;12.95;;;0.10;99.90;;;;;;5046918;28;20071;-37
2023/01/26 05:39:46;;;;;;;65.72;12.82;;;0.10;99.90;;;;;;5047148;28;20080;-37
2023/01/26 05:42:12;;;;;;;64.00;14.25;;;0.10;99.90;;;;;;5046650;28;20843;-37
2023/01/26 05:44:38;;;;;;;57.20;12.88;;;0.10;99.90;;;;;;5047229;28;20041;-37
2023/01/26 05:47:04;;;;;;;70.10;14.05;;;0.10;99.90;;;;;;5046430;28;20072;-37
2023/01/26 05:49:30;;;;;;;71.47;14.95;;;0.10;99.90;;;;;;5046540;28;20032;-38
2023/01/26 05:51:56;;;;;;;70.78;14.70;;;0.10;99.90;;;;;;5046017;28;20149;-38
2023/01/26 05:54:22;;;;;;;64.72;13.95;;;0.10;99.90;;;;;;5046020;28;20569;-38
2023/01/26 05:56:48;;;;;;;70.35;14.95;;;0.20;99.90;;;;;;5046928;28;20124;-38
2023/01/26 05:59:14;;;;;;;57.50;13.20;;;0.10;99.90;;;;;;5041933;28;20041;-37
2023/01/26 06:01:39;;;;;;;80.07;14.38;;;0.10;99.90;;;;;;5046537;28;20513;-37
2023/01/26 06:04:05;;;;;;;77.45;15.27;;;0.10;99.90;;;;;;5046686;28;20431;-37
2023/01/26 06:06:31;;;;;;;73.00;14.68;;;0.10;99.90;;;;;;5027815;28;20494;-37
2023/01/26 06:08:58;;;;;;;73.38;15.25;;;0.10;99.90;;;;;;5045862;28;20049;-38
2023/01/26 06:11:24;;;;;;;76.15;14.88;;;0.10;99.90;;;;;;5046289;28;20059;-38
2023/01/26 06:13:49;;;;;;;82.00;16.45;;;0.10;99.90;;;;;;5046376;28;20048;-37
2023/01/26 06:16:15;;;;;;;67.80;15.18;;;0.10;99.90;;;;;;5046399;28;20049;-37
2023/01/26 06:18:41;;;;;;;81.95;15.38;;;0.10;99.90;;;;;;5046409;28;20045;-37
2023/01/26 06:21:07;;;;;;;91.85;15.93;;;0.20;99.90;;;;;;5045470;28;20091;-38
2023/01/26 06:23:32;;;;;;;94.32;17.10;;;0.50;99.90;;;;;;5045557;28;20036;-37
2023/01/26 06:25:59;;;;;;;122.15;19.67;;;0.20;99.90;;;;;;5045914;28;20113;-38
2023/01/26 06:28:26;;;;;;;122.97;18.83;;;0.20;99.90;;;;;;5045562;28;20064;-38
2023/01/26 06:30:52;;;;;;;130.63;18.70;;;0.10;99.90;;;;;;5046047;28;20043;-37
2023/01/26 06:33:18;;;;;;;91.88;17.17;;;0.10;99.90;;;;;;5045328;28;20167;-37
2023/01/26 06:35:43;;;;;;;93.25;17.23;;;0.10;99.90;;;;;;5045128;28;20136;-38
2023/01/26 06:38:09;;;;;;;91.90;17.40;;;0.10;99.90;;;;;;5045526;28;20086;-37
2023/01/26 06:40:35;;;;;;;119.40;19.00;;;0.10;99.90;;;;;;5045850;28;20675;-37
2023/01/26 06:43:00;;;;;;;130.63;20.65;;;0.10;99.90;;;;;;5046121;28;20033;-37
2023/01/26 06:45:26;;;;;;;118.45;21.55;;;0.10;99.90;;;;;;5045416;28;20484;-37
2023/01/26 06:47:52;;;;;;;119.63;20.98;;;0.10;99.90;;;;;;5045621;28;20040;-37
2023/01/26 06:50:21;;;;;;;125.05;18.98;;;0.10;99.90;;;;;;5045535;28;20040;-37
2023/01/26 06:52:50;;;;;;;177.77;21.25;;;0.10;99.90;;;;;;5045547;28;20036;-37
2023/01/26 06:55:20;;;;;;;106.05;17.83;;;0.20;99.90;;;;;;5045528;28;20043;-37
2023/01/26 06:57:46;;;;;;;159.57;20.63;;;0.10;99.90;;;;;;5045338;28;20033;-38
2023/01/26 07:00:12;;;;;;;118.68;19.55;;;0.10;99.90;;;;;;5045481;28;20049;-37
2023/01/26 07:02:38;;;;;;;156.00;21.85;;;0.20;99.90;;;;;;5045152;28;20033;-38
2023/01/26 07:05:04;;;;;;;166.40;20.35;;;0.20;99.90;;;;;;5026939;28;20044;-39
2023/01/26 07:07:30;;;;;;;143.57;20.15;;;0.20;99.90;;;;;;5045521;28;20036;-38
2023/01/26 07:09:55;;;;;;;142.95;22.17;;;0.10;99.90;;;;;;5045896;28;20050;-38
2023/01/26 07:12:21;;;;;;;175.27;22.17;;;0.10;99.90;;;;;;5045551;28;20130;-37
2023/01/26 07:14:47;;;;;;;160.52;21.17;;;0.20;99.90;;;;;;5045587;28;20033;-37
2023/01/26 07:17:12;;;;;;;210.05;24.63;;;0.10;99.90;;;;;;5028224;28;20040;-37
2023/01/26 07:19:38;;;;;;;207.73;26.83;;;0.10;99.90;;;;;;5045899;28;20053;-37
2023/01/26 07:22:04;;;;;;;160.10;21.88;;;0.10;99.90;;;;;;5046237;28;20099;-38
2023/01/26 07:24:29;;;;;;;199.27;23.42;;;0.10;99.90;;;;;;5045763;28;20174;-38
2023/01/26 07:26:55;;;;;;;234.32;26.77;;;0.10;99.90;;;;;;5045944;28;20098;-38
2023/01/26 07:29:21;;;;;;;207.10;24.60;;;0.10;99.90;;;;;;5046134;28;20123;-38
2023/01/26 07:31:47;;;;;;;150.77;21.77;;;0.10;99.90;;;;;;5045316;28;20044;-37
2023/01/26 07:34:13;;;;;;;141.43;20.48;;;0.10;99.90;;;;;;5045409;28;20053;-37
2023/01/26 07:36:39;;;;;;;150.25;23.33;;;0.10;99.90;;;;;;5045582;28;20772;-38
2023/01/26 07:39:05;;;;;;;125.10;22.48;;;0.10;99.90;;;;;;5045258;28;20075;-38
2023/01/26 07:41:31;;;;;;;138.90;21.13;;;0.10;99.90;;;;;;5045230;28;20049;-38
2023/01/26 07:43:56;;;;;;;153.77;21.30;;;0.60;99.90;;;;;;5045665;28;20037;-38
2023/01/26 07:46:23;;;;;;;129.75;21.55;;;0.20;99.90;;;;;;5046016;28;20426;-37
2023/01/26 07:48:49;;;;;;;150.27;22.75;;;0.10;99.90;;;;;;5045696;28;20052;-38
2023/01/26 07:51:15;;;;;;;126.15;19.95;;;0.20;99.90;;;;;;5045945;28;20053;-38
2023/01/26 07:53:42;;;;;;;134.05;20.00;;;0.20;99.90;;;;;;5027659;28;20048;-38
2023/01/26 07:56:15;;;;;;;146.63;23.00;;;0.20;99.90;;;;;;5045882;28;20048;-37
2023/01/26 07:58:41;;;;;;;125.70;21.13;;;0.20;99.90;;;;;;5045993;28;20041;-38
2023/01/26 08:01:12;;;;;;;124.68;20.40;;;0.30;99.90;;;;;;5045731;28;20088;-38
2023/01/26 08:03:39;;;;;;;166.90;23.77;;;0.30;99.90;;;;;;5045431;28;20040;-37
2023/01/26 08:06:06;;;;;;;125.80;22.25;;;0.30;99.90;;;;;;5027522;28;20955;-38
2023/01/26 08:08:32;;;;;;;133.55;20.55;;;0.60;99.90;;;;;;5045319;28;20029;-37
2023/01/26 08:10:59;;;;;;;163.38;23.23;;;0.30;99.90;;;;;;5045382;28;20667;-38
2023/01/26 08:13:26;;;;;;;117.60;19.67;;;0.20;99.90;;;;;;5045528;28;20076;-38
2023/01/26 08:15:52;;;;;;;115.82;19.15;;;0.20;99.90;;;;;;5046192;28;20045;-37
2023/01/26 08:18:18;;;;;;;125.55;19.63;;;0.20;99.90;;;;;;5049135;28;20048;-38
2023/01/26 08:20:51;;;;;;;105.10;18.90;;;0.10;99.90;;;;;;5049259;28;20029;-38
2023/01/26 08:23:17;;;;;;;105.50;16.95;;;0.10;99.90;;;;;;5031130;28;20037;-37
2023/01/26 08:25:43;;;;;;;115.05;18.60;;;0.00;99.90;;;;;;5048891;28;20079;-38
2023/01/26 08:28:09;;;;;;;120.47;19.90;;;0.00;99.90;;;;;;5048648;28;20455;-35
2023/01/26 08:30:35;;;;;;;99.25;17.08;;;0.00;99.90;;;;;;5048836;28;20483;-35
2023/01/26 08:33:02;;;;;;;113.60;17.77;;;-0.10;99.90;;;;;;5048538;28;20049;-35
2023/01/26 08:35:28;;;;;;;92.78;17.35;;;-0.10;99.90;;;;;;5048710;28;20431;-35
2023/01/26 08:37:53;;;;;;;102.07;17.20;;;-0.10;99.90;;;;;;5047970;28;20057;-35
2023/01/26 08:40:19;;;;;;;114.25;18.30;;;-0.10;99.90;;;;;;5048481;28;20037;-35
2023/01/26 08:42:45;;;;;;;90.38;16.00;;;-0.10;99.90;;;;;;5030723;28;20727;-35
2023/01/26 08:45:10;;;;;;;122.18;18.23;;;-0.10;99.90;;;;;;5048574;28;20076;-35
2023/01/26 08:47:36;;;;;;;107.82;17.75;;;0.30;99.90;;;;;;5048253;28;20044;-35
2023/01/26 08:50:02;;;;;;;97.30;16.90;;;-0.20;99.90;;;;;;5048766;28;20033;-35
2023/01/26 08:52:27;;;;;;;74.10;14.48;;;-0.10;99.90;;;;;;5049075;28;20474;-36
2023/01/26 08:54:53;;;;;;;110.43;15.88;;;-0.10;99.90;;;;;;5030279;28;20051;-36
2023/01/26 08:57:19;;;;;;;91.10;14.77;;;-0.10;99.90;;;;;;5044054;28;20059;-35
2023/01/26 08:59:44;;;;;;;82.20;13.23;;;0.00;99.90;;;;;;5044851;28;20052;-36
2023/01/26 09:02:10;;;;;;;81.78;13.65;;;0.10;99.90;;;;;;5044915;28;20041;-36
2023/01/26 09:04:36;;;;;;;98.80;15.18;;;0.10;99.90;;;;;;5045025;28;20044;-36
2023/01/26 09:07:01;;;;;;;83.63;14.50;;;0.20;99.90;;;;;;5044918;28;20456;-36
2023/01/26 09:09:27;;;;;;;74.13;12.75;;;0.20;99.90;;;;;;5045226;28;20040;-36
2023/01/26 09:11:56;;;;;;;84.93;14.80;;;0.30;99.90;;;;;;5044660;28;20812;-37
2023/01/26 09:14:22;;;;;;;85.53;14.85;;;0.40;99.90;;;;;;5044460;28;20398;-37
2023/01/26 09:16:48;;;;;;;70.68;12.48;;;0.40;99.90;;;;;;5043798;28;20078;-37
2023/01/26 09:19:14;;;;;;;62.45;10.57;;;0.50;99.90;;;;;;5043376;28;20045;-37
2023/01/26 09:21:40;;;;;;;91.32;14.68;;;0.60;99.90;;;;;;5043306;28;20084;-37
2023/01/26 09:24:06;;;;;;;75.88;12.10;;;0.60;99.90;;;;;;5044459;28;20098;-37
2023/01/26 09:26:31;;;;;;;92.13;15.98;;;0.70;99.90;;;;;;5044434;28;20036;-36
2023/01/26 09:28:57;;;;;;;93.22;11.35;;;0.70;99.90;;;;;;5043283;28;20106;-37
2023/01/26 09:31:23;;;;;;;52.90;9.13;;;0.80;99.90;;;;;;5044123;28;20130;-37
2023/01/26 09:33:50;;;;;;;54.05;8.93;;;0.80;99.90;;;;;;5043666;28;20088;-36
2023/01/26 09:36:16;;;;;;;62.63;10.15;;;0.90;99.90;;;;;;5044404;28;20048;-36
2023/01/26 09:38:41;;;;;;;64.43;9.98;;;1.00;99.90;;;;;;5026217;28;20406;-36
2023/01/26 09:41:13;;;;;;;69.00;10.13;;;1.00;99.90;;;;;;5044317;28;20139;-37
2023/01/26 09:43:52;;;;;;;45.67;8.95;;;1.10;99.90;;;;;;5044168;28;20044;-37
2023/01/26 09:46:18;;;;;;;49.92;10.50;;;1.20;99.90;;;;;;5044495;28;20130;-37
2023/01/26 09:48:43;;;;;;;57.33;9.40;;;1.20;99.90;;;;;;5043096;28;20689;-37
2023/01/26 09:51:23;;;;;;;70.88;10.88;;;1.20;99.90;;;;;;5043910;28;20055;-37
2023/01/26 09:53:56;;;;;;;57.33;9.52;;;1.30;99.90;;;;;;5025713;28;20111;-37
2023/01/26 09:56:27;;;;;;;55.25;9.80;;;1.40;99.90;;;;;;5021430;28;20104;-37
2023/01/26 09:59:21;;;;;;;61.22;8.82;;;1.50;99.90;;;;;;5043041;28;20044;-37
2023/01/26 10:02:01;;;;;;;50.83;7.18;;;1.60;99.90;;;;;;5042903;28;20693;-38
2023/01/26 10:04:35;;;;;;;42.20;6.80;;;1.80;99.90;;;;;;5034250;28;20052;-37
2023/01/26 10:07:12;;;;;;;45.40;8.25;;;1.80;99.90;;;;;;5032323;28;20059;-37
2023/01/26 10:09:40;;;;;;;56.20;7.80;;;1.90;99.90;;;;;;5040979;28;20782;-38
2023/01/26 10:12:29;;;;;;;51.75;9.85;;;1.90;99.90;;;;;;5041716;28;20048;-39
2023/01/26 10:15:07;;;;;;;47.15;7.57;;;2.00;99.90;;;;;;5041937;28;20048;-39
2023/01/26 10:17:40;;;;;;;46.85;7.03;;;2.00;99.90;;;;;;5041714;28;20779;-40
2023/01/26 10:20:26;;;;;;;54.55;8.43;;;2.10;99.90;;;;;;5040904;28;20090;-40
2023/01/26 10:22:55;;;;;;;40.67;5.38;;;2.30;99.90;;;;;;5042417;28;20488;-40
2023/01/26 10:25:30;;;;;;;41.88;6.47;;;2.50;99.90;;;;;;5042382;28;20045;-39
2023/01/26 10:27:56;;;;;;;60.80;7.25;;;2.40;99.90;;;;;;5044140;28;20045;-40
2023/01/26 10:30:21;;;;;;;41.95;7.45;;;2.50;99.90;;;;;;5044122;28;20051;-38
2023/01/26 10:32:50;;;;;;;39.08;4.95;;;2.50;99.90;;;;;;5042849;28;20055;-38
2023/01/26 10:35:20;;;;;;;57.83;8.57;;;3.30;99.90;;;;;;5041970;28;20060;-38
2023/01/26 10:37:46;;;;;;;40.10;6.55;;;2.60;99.90;;;;;;5042125;28;20048;-40
2023/01/26 10:40:12;;;;;;;45.70;5.55;;;2.80;99.90;;;;;;5023104;28;20040;-40
2023/01/26 10:42:39;;;;;;;36.78;5.57;;;2.80;99.90;;;;;;5041927;28;20045;-40
2023/01/26 10:45:29;;;;;;;45.35;9.88;;;2.70;99.90;;;;;;5040831;28;20257;-39
2023/01/26 10:48:18;;;;;;;32.55;3.60;;;3.00;99.90;;;;;;5041265;28;20033;-40
2023/01/26 10:50:44;;;;;;;36.72;6.32;;;5.20;99.90;;;;;;5041700;28;20055;-41
2023/01/26 10:53:28;;;;;;;42.58;6.55;;;4.00;99.90;;;;;;5043181;28;20047;-40
2023/01/26 10:56:19;;;;;;;42.95;5.70;;;3.20;99.90;;;;;;5018799;28;20053;-40
2023/01/26 10:58:59;;;;;;;31.88;4.75;;;3.30;99.90;;;;;;5043336;28;20072;-37
2023/01/26 11:01:28;;;;;;;40.75;5.15;;;3.30;99.90;;;;;;5044047;28;20043;-37
2023/01/26 11:04:10;;;;;;;44.30;5.38;;;3.30;99.90;;;;;;5023851;28;20044;-37
2023/01/26 11:06:36;;;;;;;40.15;4.22;;;3.40;99.90;;;;;;5044204;28;20047;-36
2023/01/26 11:09:09;;;;;;;31.70;3.05;;;3.50;99.90;;;;;;5041679;28;20045;-37
2023/01/26 11:11:35;;;;;;;41.80;6.38;;;3.50;99.90;;;;;;5043976;28;20463;-36
2023/01/26 11:14:18;;;;;;;30.17;3.60;;;3.60;99.90;;;;;;5043418;28;20052;-36
2023/01/26 11:16:55;;;;;;;34.35;3.85;;;4.70;99.90;;;;;;5044133;28;20041;-38
2023/01/26 11:19:46;;;;;;;33.17;3.47;;;4.00;99.90;;;;;;5042491;28;20049;-37
2023/01/26 11:22:18;;;;;;;33.80;4.95;;;3.90;99.90;;;;;;5043774;28;20068;-38
2023/01/26 11:24:58;;;;;;;33.87;5.40;;;4.00;99.90;;;;;;5044006;28;20041;-41
2023/01/26 11:27:43;;;;;;;35.65;5.13;;;4.00;99.90;;;;;;5043728;28;20271;-39
2023/01/26 11:30:35;;;;;;;36.17;4.65;;;4.10;99.90;;;;;;5043751;28;20051;-39
2023/01/26 11:33:19;;;;;;;29.90;3.67;;;4.20;99.90;;;;;;5043642;28;20052;-40
2023/01/26 11:35:51;;;;;;;33.20;2.95;;;4.30;99.90;;;;;;5043651;28;20549;-36
2023/01/26 11:38:38;;;;;;;35.85;4.30;;;4.40;99.90;;;;;;5043813;28;20045;-39
2023/01/26 11:41:22;;;;;;;35.15;3.22;;;5.00;99.90;;;;;;5043449;28;20049;-39
2023/01/26 11:44:11;;;;;;;26.45;3.88;;;5.40;99.90;;;;;;5009246;28;20047;-40
2023/01/26 11:46:37;;;;;;;36.28;3.47;;;4.70;99.90;;;;;;5045552;28;20037;-40
2023/01/26 11:49:22;;;;;;;26.52;3.08;;;5.90;99.90;;;;;;5045003;28;20060;-38
2023/01/26 11:52:06;;;;;;;46.60;5.20;;;4.90;99.90;;;;;;5047957;28;20132;-39
2023/01/26 11:54:56;;;;;;;29.45;2.25;;;5.00;99.90;;;;;;5048981;28;20786;-38
2023/01/26 11:57:35;;;;;;;35.33;3.83;;;5.20;99.90;;;;;;5048977;28;20115;-38
2023/01/26 12:00:44;;;;;;;37.42;3.95;;;5.30;99.90;;;;;;5048405;28;20926;-38
2023/01/26 12:03:47;;;;;;;32.60;2.92;;;5.50;99.90;;;;;;5029252;28;20609;-38
2023/01/26 12:06:38;;;;;;;36.90;3.35;;;5.70;99.90;;;;;;5046833;28;20585;-39
2023/01/26 12:09:17;;;;;;;28.17;3.42;;;5.90;99.90;;;;;;5048013;28;20044;-39
2023/01/26 12:11:59;;;;;;;33.22;3.72;;;6.00;99.90;;;;;;5047926;28;20537;-39
2023/01/26 12:14:58;;;;;;;23.45;5.07;;;6.10;99.90;;;;;;5048044;28;20418;-39
2023/01/26 12:17:31;;;;;;;27.65;2.67;;;6.10;99.90;;;;;;5029569;28;20067;-38
2023/01/26 12:20:44;;;;;;;25.52;2.42;;;6.20;99.90;;;;;;5047724;28;20045;-39
2023/01/26 12:23:33;;;;;;;24.85;2.30;;;6.50;99.90;;;;;;4949402;28;20042;-40
2023/01/26 12:26:09;;;;;;;19.33;2.17;;;6.60;99.90;;;;;;5046566;28;20476;-40
2023/01/26 12:28:59;;;;;;;17.67;2.58;;;6.60;99.90;;;;;;5029451;28;20049;-40
2023/01/26 12:31:39;;;;;;;21.20;1.55;;;6.50;99.90;;;;;;5047181;28;20045;-40
2023/01/26 12:34:11;;;;;;;24.95;1.95;;;6.50;99.90;;;;;;5047324;28;20506;-39
2023/01/26 12:36:50;;;;;;;24.00;1.98;;;6.50;99.90;;;;;;5029694;28;20084;-39
2023/01/26 12:39:43;;;;;;;24.77;3.53;;;6.50;99.90;;;;;;5045989;28;20084;-39
2023/01/26 12:42:39;;;;;;;17.80;1.85;;;6.60;99.90;;;;;;5048121;28;20123;-40
2023/01/26 12:45:14;;;;;;;26.20;3.03;;;6.60;99.90;;;;;;5047679;28;20041;-40
2023/01/26 12:48:05;;;;;;;22.00;2.22;;;6.40;99.90;;;;;;5047648;28;20113;-39
2023/01/26 12:50:35;;;;;;;24.95;1.65;;;6.30;99.90;;;;;;5047238;28;20052;-38
2023/01/26 12:53:06;;;;;;;14.20;1.58;;;6.10;99.90;;;;;;5047400;28;20048;-38
2023/01/26 12:55:53;;;;;;;22.50;1.88;;;6.00;99.90;;;;;;5047594;28;20109;-38
2023/01/26 12:58:19;;;;;;;27.63;2.88;;;6.00;99.90;;;;;;5047259;28;20126;-38
2023/01/26 13:01:12;;;;;;;23.75;1.70;;;6.90;99.90;;;;;;5047864;28;20136;-38
2023/01/26 13:03:44;;;;;;;23.00;1.63;;;6.90;99.90;;;;;;5023287;28;20044;-40
2023/01/26 13:06:39;;;;;;;;;;;7.10;99.90;;;;;;5047146;28;20454;-40
2023/01/26 13:09:21;;;;;;;14.77;1.27;;;6.50;99.90;;;;;;5038146;28;19926;-39
2023/01/26 13:12:01;;;;;;;18.30;1.25;;;7.40;99.90;;;;;;5046850;28;20047;-39
2023/01/26 13:14:42;;;;;;;24.60;1.52;;;6.80;99.90;;;;;;5046792;28;20086;-37
2023/01/26 13:17:16;;;;;;;25.10;2.03;;;6.80;99.90;;;;;;5046468;28;20544;-39
2023/01/26 13:19:42;;;;;;;17.20;1.77;;;4.40;99.90;;;;;;5046799;28;20124;-39
2023/01/26 13:22:22;;;;;;;14.23;1.30;;;6.90;99.90;;;;;;5047391;28;20075;-39
2023/01/26 13:24:58;;;;;;;18.13;2.53;;;7.50;99.90;;;;;;5046153;28;20044;-39
2023/01/26 13:27:34;;;;;;;19.58;1.50;;;7.00;99.90;;;;;;5046939;28;20732;-38
2023/01/26 13:30:00;;;;;;;23.52;1.75;;;7.00;99.90;;;;;;5045945;28;20475;-39
2023/01/26 13:32:25;;;;;;;16.90;2.50;;;7.00;99.90;;;;;;5046039;28;20052;-39
2023/01/26 13:35:00;;;;;;;18.48;2.05;;;7.00;99.90;;;;;;5046039;28;20060;-39
2023/01/26 13:38:03;;;;;;;21.42;1.33;;;7.00;99.90;;;;;;5046040;28;20051;-38